sensor_id;sensor_type;location;lat;lon;timestamp;P1;durP1;ratioP1;P2;durP2;ratioP2
76447;SDS011;65284;51.040;13.722;2023-04-01T00:01:02;2.60;;;0.52;;
76447;SDS011;65284;51.040;13.722;2023-04-01T00:03:30;2.08;;;0.50;;
76447;SDS011;65284;51.040;13.722;2023-04-01T00:05:57;3.10;;;0.40;;
76447;SDS011;65284;51.040;13.722;2023-04-01T00:08:24;2.85;;;0.60;;
76447;SDS011;65284;51.040;13.722;2023-04-01T00:10:52;3.70;;;0.50;;
76447;SDS011;65284;51.040;13.722;2023-04-01T00:13:19;2.40;;;0.40;;
76447;SDS011;65284;51.040;13.722;2023-04-01T00:15:46;2.10;;;0.40;;
76447;SDS011;65284;51.040;13.722;2023-04-01T00:18:12;3.13;;;0.60;;
76447;SDS011;65284;51.040;13.722;2023-04-01T00:20:43;2.22;;;0.52;;
76447;SDS011;65284;51.040;13.722;2023-04-01T00:23:11;2.78;;;0.50;;
76447;SDS011;65284;51.040;13.722;2023-04-01T00:25:38;2.05;;;0.38;;
76447;SDS011;65284;51.040;13.722;2023-04-01T00:28:04;2.67;;;0.52;;
76447;SDS011;65284;51.040;13.722;2023-04-01T00:30:31;2.15;;;0.35;;
76447;SDS011;65284;51.040;13.722;2023-04-01T00:32:57;1.42;;;0.40;;
76447;SDS011;65284;51.040;13.722;2023-04-01T00:35:24;2.38;;;0.40;;
76447;SDS011;65284;51.040;13.722;2023-04-01T00:37:50;1.90;;;0.43;;
76447;SDS011;65284;51.040;13.722;2023-04-01T00:40:37;1.23;;;0.40;;
76447;SDS011;65284;51.040;13.722;2023-04-01T00:43:12;4.10;;;0.50;;
76447;SDS011;65284;51.040;13.722;2023-04-01T00:45:47;2.47;;;0.50;;
76447;SDS011;65284;51.040;13.722;2023-04-01T00:48:16;1.35;;;0.35;;
76447;SDS011;65284;51.040;13.722;2023-04-01T00:50:54;2.75;;;0.57;;
76447;SDS011;65284;51.040;13.722;2023-04-01T00:53:25;3.05;;;0.70;;
76447;SDS011;65284;51.040;13.722;2023-04-01T00:55:56;3.75;;;0.50;;
76447;SDS011;65284;51.040;13.722;2023-04-01T00:58:27;3.42;;;0.45;;
76447;SDS011;65284;51.040;13.722;2023-04-01T01:00:57;2.28;;;0.40;;
76447;SDS011;65284;51.040;13.722;2023-04-01T01:03:26;2.83;;;0.80;;
76447;SDS011;65284;51.040;13.722;2023-04-01T01:05:57;2.28;;;0.50;;
76447;SDS011;65284;51.040;13.722;2023-04-01T01:08:43;2.47;;;0.82;;
76447;SDS011;65284;51.040;13.722;2023-04-01T01:11:34;2.83;;;0.45;;
76447;SDS011;65284;51.040;13.722;2023-04-01T01:14:10;2.15;;;0.40;;
76447;SDS011;65284;51.040;13.722;2023-04-01T01:17:02;1.80;;;0.40;;
76447;SDS011;65284;51.040;13.722;2023-04-01T01:22:55;2.72;;;0.50;;
76447;SDS011;65284;51.040;13.722;2023-04-01T01:25:28;1.67;;;0.40;;
76447;SDS011;65284;51.040;13.722;2023-04-01T01:38:56;2.78;;;0.60;;
76447;SDS011;65284;51.040;13.722;2023-04-01T01:41:24;2.15;;;0.90;;
76447;SDS011;65284;51.040;13.722;2023-04-01T01:43:52;2.58;;;0.50;;
76447;SDS011;65284;51.040;13.722;2023-04-01T01:46:22;3.50;;;0.50;;
76447;SDS011;65284;51.040;13.722;2023-04-01T01:48:51;2.92;;;0.45;;
76447;SDS011;65284;51.040;13.722;2023-04-01T01:51:19;2.83;;;0.50;;
76447;SDS011;65284;51.040;13.722;2023-04-01T01:53:48;2.30;;;0.52;;
76447;SDS011;65284;51.040;13.722;2023-04-01T01:56:14;2.20;;;0.50;;
76447;SDS011;65284;51.040;13.722;2023-04-01T01:58:45;1.65;;;0.32;;
76447;SDS011;65284;51.040;13.722;2023-04-01T02:01:25;3.08;;;0.60;;
76447;SDS011;65284;51.040;13.722;2023-04-01T02:03:54;3.15;;;0.52;;
76447;SDS011;65284;51.040;13.722;2023-04-01T02:06:22;2.60;;;0.43;;
76447;SDS011;65284;51.040;13.722;2023-04-01T02:08:55;2.35;;;0.40;;
76447;SDS011;65284;51.040;13.722;2023-04-01T02:11:29;1.92;;;0.50;;
76447;SDS011;65284;51.040;13.722;2023-04-01T02:14:05;3.25;;;0.40;;
76447;SDS011;65284;51.040;13.722;2023-04-01T02:16:40;4.68;;;0.60;;
76447;SDS011;65284;51.040;13.722;2023-04-01T02:19:13;2.05;;;0.35;;
76447;SDS011;65284;51.040;13.722;2023-04-01T02:21:53;2.70;;;0.73;;
76447;SDS011;65284;51.040;13.722;2023-04-01T02:24:23;2.03;;;0.40;;
76447;SDS011;65284;51.040;13.722;2023-04-01T02:26:53;2.38;;;0.50;;
76447;SDS011;65284;51.040;13.722;2023-04-01T02:29:21;3.85;;;0.55;;
76447;SDS011;65284;51.040;13.722;2023-04-01T02:31:49;3.50;;;0.60;;
76447;SDS011;65284;51.040;13.722;2023-04-01T02:34:16;3.85;;;0.60;;
76447;SDS011;65284;51.040;13.722;2023-04-01T02:36:44;2.50;;;0.60;;
76447;SDS011;65284;51.040;13.722;2023-04-01T02:39:10;4.57;;;0.60;;
76447;SDS011;65284;51.040;13.722;2023-04-01T02:41:40;2.08;;;0.60;;
76447;SDS011;65284;51.040;13.722;2023-04-01T02:44:08;1.75;;;0.60;;
76447;SDS011;65284;51.040;13.722;2023-04-01T02:46:36;3.40;;;0.52;;
76447;SDS011;65284;51.040;13.722;2023-04-01T02:49:03;1.65;;;0.50;;
76447;SDS011;65284;51.040;13.722;2023-04-01T02:51:30;2.97;;;0.52;;
76447;SDS011;65284;51.040;13.722;2023-04-01T02:53:58;3.13;;;0.60;;
76447;SDS011;65284;51.040;13.722;2023-04-01T02:56:24;3.85;;;0.70;;
76447;SDS011;65284;51.040;13.722;2023-04-01T02:58:52;3.28;;;0.50;;
76447;SDS011;65284;51.040;13.722;2023-04-01T03:01:19;3.30;;;0.60;;
76447;SDS011;65284;51.040;13.722;2023-04-01T03:03:46;1.55;;;0.50;;
76447;SDS011;65284;51.040;13.722;2023-04-01T03:06:13;2.65;;;0.40;;
76447;SDS011;65284;51.040;13.722;2023-04-01T03:08:41;2.67;;;0.95;;
76447;SDS011;65284;51.040;13.722;2023-04-01T03:11:09;3.08;;;0.57;;
76447;SDS011;65284;51.040;13.722;2023-04-01T03:13:36;2.78;;;0.50;;
76447;SDS011;65284;51.040;13.722;2023-04-01T03:16:03;4.35;;;0.60;;
76447;SDS011;65284;51.040;13.722;2023-04-01T03:18:29;3.42;;;0.60;;
76447;SDS011;65284;51.040;13.722;2023-04-01T03:20:56;3.22;;;0.70;;
76447;SDS011;65284;51.040;13.722;2023-04-01T03:23:22;2.40;;;0.60;;
76447;SDS011;65284;51.040;13.722;2023-04-01T03:25:50;2.67;;;0.60;;
76447;SDS011;65284;51.040;13.722;2023-04-01T03:28:16;4.07;;;0.70;;
76447;SDS011;65284;51.040;13.722;2023-04-01T03:30:43;3.45;;;0.55;;
76447;SDS011;65284;51.040;13.722;2023-04-01T03:33:09;2.63;;;0.43;;
76447;SDS011;65284;51.040;13.722;2023-04-01T03:35:35;3.88;;;0.60;;
76447;SDS011;65284;51.040;13.722;2023-04-01T03:38:02;4.40;;;0.80;;
76447;SDS011;65284;51.040;13.722;2023-04-01T03:40:28;4.80;;;0.65;;
76447;SDS011;65284;51.040;13.722;2023-04-01T03:42:55;3.42;;;0.60;;
76447;SDS011;65284;51.040;13.722;2023-04-01T03:45:22;3.47;;;0.63;;
76447;SDS011;65284;51.040;13.722;2023-04-01T03:47:48;4.10;;;0.52;;
76447;SDS011;65284;51.040;13.722;2023-04-01T03:50:15;2.65;;;0.75;;
76447;SDS011;65284;51.040;13.722;2023-04-01T03:52:41;2.83;;;0.57;;
76447;SDS011;65284;51.040;13.722;2023-04-01T03:55:08;5.60;;;0.77;;
76447;SDS011;65284;51.040;13.722;2023-04-01T03:57:34;3.50;;;0.60;;
76447;SDS011;65284;51.040;13.722;2023-04-01T04:00:01;3.88;;;0.63;;
76447;SDS011;65284;51.040;13.722;2023-04-01T04:02:28;2.40;;;0.50;;
76447;SDS011;65284;51.040;13.722;2023-04-01T04:04:54;2.97;;;0.60;;
76447;SDS011;65284;51.040;13.722;2023-04-01T04:07:20;1.85;;;0.43;;
76447;SDS011;65284;51.040;13.722;2023-04-01T04:09:47;2.22;;;0.40;;
76447;SDS011;65284;51.040;13.722;2023-04-01T04:12:13;4.97;;;0.68;;
76447;SDS011;65284;51.040;13.722;2023-04-01T04:14:40;3.47;;;0.50;;
76447;SDS011;65284;51.040;13.722;2023-04-01T04:17:06;2.92;;;0.70;;
76447;SDS011;65284;51.040;13.722;2023-04-01T04:19:34;2.78;;;0.47;;
76447;SDS011;65284;51.040;13.722;2023-04-01T04:22:00;3.92;;;0.75;;
76447;SDS011;65284;51.040;13.722;2023-04-01T04:24:27;3.80;;;0.60;;
76447;SDS011;65284;51.040;13.722;2023-04-01T04:26:53;2.72;;;0.50;;
76447;SDS011;65284;51.040;13.722;2023-04-01T04:29:20;3.40;;;0.50;;
76447;SDS011;65284;51.040;13.722;2023-04-01T04:31:46;3.45;;;0.57;;
76447;SDS011;65284;51.040;13.722;2023-04-01T04:34:13;3.13;;;0.50;;
76447;SDS011;65284;51.040;13.722;2023-04-01T04:36:39;3.75;;;0.70;;
76447;SDS011;65284;51.040;13.722;2023-04-01T04:39:06;3.20;;;0.60;;
76447;SDS011;65284;51.040;13.722;2023-04-01T04:41:32;3.65;;;0.60;;
76447;SDS011;65284;51.040;13.722;2023-04-01T04:44:01;2.35;;;0.60;;
76447;SDS011;65284;51.040;13.722;2023-04-01T04:46:28;4.05;;;0.45;;
76447;SDS011;65284;51.040;13.722;2023-04-01T04:48:54;2.38;;;0.52;;
76447;SDS011;65284;51.040;13.722;2023-04-01T04:51:21;3.58;;;0.60;;
76447;SDS011;65284;51.040;13.722;2023-04-01T04:53:47;2.28;;;0.50;;
76447;SDS011;65284;51.040;13.722;2023-04-01T04:56:20;6.03;;;0.60;;
76447;SDS011;65284;51.040;13.722;2023-04-01T04:58:48;2.97;;;0.50;;
76447;SDS011;65284;51.040;13.722;2023-04-01T05:01:15;3.38;;;0.40;;
76447;SDS011;65284;51.040;13.722;2023-04-01T05:03:42;1.77;;;0.38;;
76447;SDS011;65284;51.040;13.722;2023-04-01T05:06:09;3.55;;;0.50;;
76447;SDS011;65284;51.040;13.722;2023-04-01T05:08:38;3.35;;;0.70;;
76447;SDS011;65284;51.040;13.722;2023-04-01T05:11:06;3.20;;;0.40;;
76447;SDS011;65284;51.040;13.722;2023-04-01T05:13:39;3.58;;;0.60;;
76447;SDS011;65284;51.040;13.722;2023-04-01T05:16:12;3.22;;;0.57;;
76447;SDS011;65284;51.040;13.722;2023-04-01T05:18:40;2.78;;;0.52;;
76447;SDS011;65284;51.040;13.722;2023-04-01T05:21:08;1.73;;;0.43;;
76447;SDS011;65284;51.040;13.722;2023-04-01T05:23:36;4.45;;;0.68;;
76447;SDS011;65284;51.040;13.722;2023-04-01T05:26:07;1.65;;;0.40;;
76447;SDS011;65284;51.040;13.722;2023-04-01T05:28:38;2.15;;;0.43;;
76447;SDS011;65284;51.040;13.722;2023-04-01T05:31:05;1.60;;;0.40;;
76447;SDS011;65284;51.040;13.722;2023-04-01T05:33:33;3.30;;;0.30;;
76447;SDS011;65284;51.040;13.722;2023-04-01T05:36:06;2.88;;;0.35;;
76447;SDS011;65284;51.040;13.722;2023-04-01T05:38:34;3.15;;;0.50;;
76447;SDS011;65284;51.040;13.722;2023-04-01T05:41:02;4.22;;;0.50;;
76447;SDS011;65284;51.040;13.722;2023-04-01T05:43:29;1.65;;;0.35;;
76447;SDS011;65284;51.040;13.722;2023-04-01T05:45:56;2.25;;;0.50;;
76447;SDS011;65284;51.040;13.722;2023-04-01T05:48:23;2.13;;;0.40;;
76447;SDS011;65284;51.040;13.722;2023-04-01T05:50:50;2.00;;;0.40;;
76447;SDS011;65284;51.040;13.722;2023-04-01T05:53:16;3.78;;;0.43;;
76447;SDS011;65284;51.040;13.722;2023-04-01T05:55:42;2.17;;;0.60;;
76447;SDS011;65284;51.040;13.722;2023-04-01T05:58:09;2.53;;;0.63;;
76447;SDS011;65284;51.040;13.722;2023-04-01T06:00:35;4.07;;;0.60;;
76447;SDS011;65284;51.040;13.722;2023-04-01T06:03:02;4.82;;;0.50;;
76447;SDS011;65284;51.040;13.722;2023-04-01T06:05:29;2.50;;;0.43;;
76447;SDS011;65284;51.040;13.722;2023-04-01T06:08:05;2.80;;;0.50;;
76447;SDS011;65284;51.040;13.722;2023-04-01T06:13:37;3.67;;;0.55;;
76447;SDS011;65284;51.040;13.722;2023-04-01T06:16:36;2.95;;;0.50;;
76447;SDS011;65284;51.040;13.722;2023-04-01T06:30:30;2.22;;;0.40;;
76447;SDS011;65284;51.040;13.722;2023-04-01T06:43:57;3.13;;;0.47;;
76447;SDS011;65284;51.040;13.722;2023-04-01T06:46:47;2.00;;;0.40;;
76447;SDS011;65284;51.040;13.722;2023-04-01T06:52:20;2.60;;;0.52;;
76447;SDS011;65284;51.040;13.722;2023-04-01T06:54:55;2.65;;;0.52;;
76447;SDS011;65284;51.040;13.722;2023-04-01T06:57:29;2.33;;;0.40;;
76447;SDS011;65284;51.040;13.722;2023-04-01T07:00:02;3.17;;;0.55;;
76447;SDS011;65284;51.040;13.722;2023-04-01T07:02:41;1.92;;;0.40;;
76447;SDS011;65284;51.040;13.722;2023-04-01T07:05:13;1.92;;;0.40;;
76447;SDS011;65284;51.040;13.722;2023-04-01T07:07:41;2.40;;;0.60;;
76447;SDS011;65284;51.040;13.722;2023-04-01T07:10:18;3.47;;;0.52;;
76447;SDS011;65284;51.040;13.722;2023-04-01T07:12:49;3.25;;;0.60;;
76447;SDS011;65284;51.040;13.722;2023-04-01T07:15:22;3.05;;;0.45;;
76447;SDS011;65284;51.040;13.722;2023-04-01T07:17:53;4.03;;;0.70;;
76447;SDS011;65284;51.040;13.722;2023-04-01T07:20:29;2.65;;;0.50;;
76447;SDS011;65284;51.040;13.722;2023-04-01T07:22:58;3.63;;;0.60;;
76447;SDS011;65284;51.040;13.722;2023-04-01T07:25:35;2.47;;;0.47;;
76447;SDS011;65284;51.040;13.722;2023-04-01T07:28:06;2.60;;;0.30;;
76447;SDS011;65284;51.040;13.722;2023-04-01T07:39:18;2.58;;;0.47;;
76447;SDS011;65284;51.040;13.722;2023-04-01T07:41:58;1.98;;;0.30;;
76447;SDS011;65284;51.040;13.722;2023-04-01T07:44:44;2.78;;;0.47;;
76447;SDS011;65284;51.040;13.722;2023-04-01T07:47:33;1.98;;;0.30;;
76447;SDS011;65284;51.040;13.722;2023-04-01T07:50:18;2.90;;;0.57;;
76447;SDS011;65284;51.040;13.722;2023-04-01T07:55:46;2.05;;;0.50;;
76447;SDS011;65284;51.040;13.722;2023-04-01T07:58:37;2.63;;;0.30;;
76447;SDS011;65284;51.040;13.722;2023-04-01T08:01:28;3.10;;;0.40;;
76447;SDS011;65284;51.040;13.722;2023-04-01T08:04:04;1.50;;;0.40;;
76447;SDS011;65284;51.040;13.722;2023-04-01T08:12:01;1.80;;;0.20;;
76447;SDS011;65284;51.040;13.722;2023-04-01T08:14:45;2.53;;;0.43;;
76447;SDS011;65284;51.040;13.722;2023-04-01T08:17:29;2.72;;;0.50;;
76447;SDS011;65284;51.040;13.722;2023-04-01T08:20:10;1.83;;;0.40;;
76447;SDS011;65284;51.040;13.722;2023-04-01T08:22:45;2.60;;;0.45;;
76447;SDS011;65284;51.040;13.722;2023-04-01T08:25:19;2.45;;;0.30;;
76447;SDS011;65284;51.040;13.722;2023-04-01T08:28:13;2.00;;;0.32;;
76447;SDS011;65284;51.040;13.722;2023-04-01T08:30:43;2.13;;;0.40;;
76447;SDS011;65284;51.040;13.722;2023-04-01T08:33:18;2.60;;;0.50;;
76447;SDS011;65284;51.040;13.722;2023-04-01T08:38:33;1.67;;;0.40;;
76447;SDS011;65284;51.040;13.722;2023-04-01T08:41:19;3.28;;;0.60;;
76447;SDS011;65284;51.040;13.722;2023-04-01T08:43:55;1.52;;;0.40;;
76447;SDS011;65284;51.040;13.722;2023-04-01T08:46:47;2.58;;;0.50;;
76447;SDS011;65284;51.040;13.722;2023-04-01T08:49:50;1.83;;;0.40;;
76447;SDS011;65284;51.040;13.722;2023-04-01T08:52:24;2.25;;;0.50;;
76447;SDS011;65284;51.040;13.722;2023-04-01T08:55:02;2.05;;;0.45;;
76447;SDS011;65284;51.040;13.722;2023-04-01T08:57:49;1.00;;;0.43;;
76447;SDS011;65284;51.040;13.722;2023-04-01T09:00:32;1.33;;;0.40;;
76447;SDS011;65284;51.040;13.722;2023-04-01T09:03:09;5.35;;;0.50;;
76447;SDS011;65284;51.040;13.722;2023-04-01T09:16:51;3.78;;;0.40;;
76447;SDS011;65284;51.040;13.722;2023-04-01T09:25:22;4.25;;;0.90;;
76447;SDS011;65284;51.040;13.722;2023-04-01T09:28:08;2.28;;;0.50;;
76447;SDS011;65284;51.040;13.722;2023-04-01T09:36:21;3.25;;;0.60;;
76447;SDS011;65284;51.040;13.722;2023-04-01T09:39:06;1.23;;;0.40;;
76447;SDS011;65284;51.040;13.722;2023-04-01T09:41:57;2.72;;;0.43;;
76447;SDS011;65284;51.040;13.722;2023-04-01T09:44:53;2.60;;;0.40;;
76447;SDS011;65284;51.040;13.722;2023-04-01T09:50:28;1.30;;;0.50;;
76447;SDS011;65284;51.040;13.722;2023-04-01T09:53:06;1.80;;;0.47;;
76447;SDS011;65284;51.040;13.722;2023-04-01T09:58:43;2.83;;;0.30;;
76447;SDS011;65284;51.040;13.722;2023-04-01T10:01:39;2.85;;;0.70;;
76447;SDS011;65284;51.040;13.722;2023-04-01T10:16:03;1.70;;;0.45;;
76447;SDS011;65284;51.040;13.722;2023-04-01T10:18:56;2.08;;;0.60;;
76447;SDS011;65284;51.040;13.722;2023-04-01T10:21:46;1.15;;;0.50;;
76447;SDS011;65284;51.040;13.722;2023-04-01T10:24:30;2.78;;;0.60;;
76447;SDS011;65284;51.040;13.722;2023-04-01T10:33:19;1.25;;;0.40;;
76447;SDS011;65284;51.040;13.722;2023-04-01T10:36:28;1.88;;;0.60;;
76447;SDS011;65284;51.040;13.722;2023-04-01T10:42:13;2.20;;;0.65;;
76447;SDS011;65284;51.040;13.722;2023-04-01T11:11:17;0.88;;;0.30;;
76447;SDS011;65284;51.040;13.722;2023-04-01T11:16:46;9.85;;;4.18;;
76447;SDS011;65284;51.040;13.722;2023-04-01T11:19:30;2.38;;;0.60;;
76447;SDS011;65284;51.040;13.722;2023-04-01T11:22:10;1.40;;;0.38;;
76447;SDS011;65284;51.040;13.722;2023-04-01T11:35:48;0.80;;;0.20;;
76447;SDS011;65284;51.040;13.722;2023-04-01T11:41:30;1.23;;;0.30;;
76447;SDS011;65284;51.040;13.722;2023-04-01T11:47:11;1.38;;;0.40;;
76447;SDS011;65284;51.040;13.722;2023-04-01T11:56:02;2.30;;;0.45;;
76447;SDS011;65284;51.040;13.722;2023-04-01T12:01:44;1.52;;;0.30;;
76447;SDS011;65284;51.040;13.722;2023-04-01T12:07:32;1.23;;;0.30;;
76447;SDS011;65284;51.040;13.722;2023-04-01T12:10:18;1.73;;;0.50;;
76447;SDS011;65284;51.040;13.722;2023-04-01T12:23:58;1.60;;;0.47;;
76447;SDS011;65284;51.040;13.722;2023-04-01T12:32:14;1.92;;;0.68;;
76447;SDS011;65284;51.040;13.722;2023-04-01T12:43:13;3.65;;;1.20;;
76447;SDS011;65284;51.040;13.722;2023-04-01T12:48:47;1.30;;;0.60;;
76447;SDS011;65284;51.040;13.722;2023-04-01T13:00:23;1.83;;;0.50;;
76447;SDS011;65284;51.040;13.722;2023-04-01T13:05:52;1.08;;;0.30;;
76447;SDS011;65284;51.040;13.722;2023-04-01T13:08:48;1.55;;;0.50;;
76447;SDS011;65284;51.040;13.722;2023-04-01T13:12:03;0.70;;;0.30;;
76447;SDS011;65284;51.040;13.722;2023-04-01T13:28:39;0.30;;;0.10;;
76447;SDS011;65284;51.040;13.722;2023-04-01T13:31:23;1.60;;;0.40;;
76447;SDS011;65284;51.040;13.722;2023-04-01T13:34:17;0.90;;;0.30;;
76447;SDS011;65284;51.040;13.722;2023-04-01T13:37:30;1.15;;;0.25;;
76447;SDS011;65284;51.040;13.722;2023-04-01T13:45:29;1.80;;;0.20;;
76447;SDS011;65284;51.040;13.722;2023-04-01T13:48:23;0.93;;;0.30;;
76447;SDS011;65284;51.040;13.722;2023-04-01T13:51:01;0.40;;;0.10;;
76447;SDS011;65284;51.040;13.722;2023-04-01T13:58:50;1.05;;;0.35;;
76447;SDS011;65284;51.040;13.722;2023-04-01T14:04:15;1.92;;;0.65;;
76447;SDS011;65284;51.040;13.722;2023-04-01T14:10:02;1.42;;;0.30;;
76447;SDS011;65284;51.040;13.722;2023-04-01T14:29:26;1.08;;;0.32;;
76447;SDS011;65284;51.040;13.722;2023-04-01T14:32:09;3.47;;;0.73;;
76447;SDS011;65284;51.040;13.722;2023-04-01T14:49:15;1.40;;;0.30;;
76447;SDS011;65284;51.040;13.722;2023-04-01T14:51:47;1.60;;;0.30;;
76447;SDS011;65284;51.040;13.722;2023-04-01T14:54:18;0.55;;;0.30;;
76447;SDS011;65284;51.040;13.722;2023-04-01T15:00:07;1.00;;;0.20;;
76447;SDS011;65284;51.040;13.722;2023-04-01T15:02:39;0.52;;;0.20;;
76447;SDS011;65284;51.040;13.722;2023-04-01T15:05:38;1.00;;;0.20;;
76447;SDS011;65284;51.040;13.722;2023-04-01T15:08:51;0.45;;;0.20;;
76447;SDS011;65284;51.040;13.722;2023-04-01T15:11:38;2.60;;;1.10;;
76447;SDS011;65284;51.040;13.722;2023-04-01T15:16:51;0.32;;;0.20;;
76447;SDS011;65284;51.040;13.722;2023-04-01T15:22:43;0.88;;;0.10;;
76447;SDS011;65284;51.040;13.722;2023-04-01T15:25:42;0.43;;;0.10;;
76447;SDS011;65284;51.040;13.722;2023-04-01T15:28:34;0.60;;;0.20;;
76447;SDS011;65284;51.040;13.722;2023-04-01T15:31:15;1.08;;;0.20;;
76447;SDS011;65284;51.040;13.722;2023-04-01T15:33:49;0.98;;;0.20;;
76447;SDS011;65284;51.040;13.722;2023-04-01T15:42:15;0.85;;;0.28;;
76447;SDS011;65284;51.040;13.722;2023-04-01T16:01:03;1.05;;;0.20;;
76447;SDS011;65284;51.040;13.722;2023-04-01T16:04:09;1.88;;;0.30;;
76447;SDS011;65284;51.040;13.722;2023-04-01T16:06:45;1.05;;;0.38;;
76447;SDS011;65284;51.040;13.722;2023-04-01T16:12:24;0.73;;;0.30;;
76447;SDS011;65284;51.040;13.722;2023-04-01T16:15:19;0.75;;;0.30;;
76447;SDS011;65284;51.040;13.722;2023-04-01T16:18:14;0.95;;;0.30;;
76447;SDS011;65284;51.040;13.722;2023-04-01T16:20:57;0.60;;;0.20;;
76447;SDS011;65284;51.040;13.722;2023-04-01T16:23:39;1.00;;;0.25;;
76447;SDS011;65284;51.040;13.722;2023-04-01T16:26:18;2.83;;;1.25;;
76447;SDS011;65284;51.040;13.722;2023-04-01T16:28:54;2.00;;;0.50;;
76447;SDS011;65284;51.040;13.722;2023-04-01T16:31:31;1.40;;;0.20;;
76447;SDS011;65284;51.040;13.722;2023-04-01T16:36:48;1.20;;;0.20;;
76447;SDS011;65284;51.040;13.722;2023-04-01T16:39:41;0.60;;;0.30;;
76447;SDS011;65284;51.040;13.722;2023-04-01T16:42:38;1.33;;;0.32;;
76447;SDS011;65284;51.040;13.722;2023-04-01T16:48:13;1.17;;;0.40;;
76447;SDS011;65284;51.040;13.722;2023-04-01T16:53:25;3.13;;;0.30;;
76447;SDS011;65284;51.040;13.722;2023-04-01T16:56:06;1.35;;;0.30;;
76447;SDS011;65284;51.040;13.722;2023-04-01T17:01:44;4.13;;;0.60;;
76447;SDS011;65284;51.040;13.722;2023-04-01T17:18:14;1.88;;;0.80;;
76447;SDS011;65284;51.040;13.722;2023-04-01T17:20:59;2.15;;;0.80;;
76447;SDS011;65284;51.040;13.722;2023-04-01T17:23:36;1.38;;;0.55;;
76447;SDS011;65284;51.040;13.722;2023-04-01T17:26:25;2.63;;;0.80;;
76447;SDS011;65284;51.040;13.722;2023-04-01T17:31:57;1.90;;;0.50;;
76447;SDS011;65284;51.040;13.722;2023-04-01T17:37:42;1.38;;;0.60;;
76447;SDS011;65284;51.040;13.722;2023-04-01T17:40:36;2.50;;;0.63;;
76447;SDS011;65284;51.040;13.722;2023-04-01T17:48:57;2.50;;;0.68;;
76447;SDS011;65284;51.040;13.722;2023-04-01T17:54:41;2.55;;;0.60;;
76447;SDS011;65284;51.040;13.722;2023-04-01T17:57:30;1.25;;;0.52;;
76447;SDS011;65284;51.040;13.722;2023-04-01T18:00:23;1.50;;;0.50;;
76447;SDS011;65284;51.040;13.722;2023-04-01T18:14:48;24.20;;;12.07;;
76447;SDS011;65284;51.040;13.722;2023-04-01T18:23:35;6.97;;;3.20;;
76447;SDS011;65284;51.040;13.722;2023-04-01T18:26:29;4.90;;;1.90;;
76447;SDS011;65284;51.040;13.722;2023-04-01T18:29:11;4.53;;;1.65;;
76447;SDS011;65284;51.040;13.722;2023-04-01T18:31:50;2.97;;;1.30;;
76447;SDS011;65284;51.040;13.722;2023-04-01T18:37:29;27.95;;;11.40;;
76447;SDS011;65284;51.040;13.722;2023-04-01T18:40:17;13.95;;;7.07;;
76447;SDS011;65284;51.040;13.722;2023-04-01T18:42:57;7.93;;;3.70;;
76447;SDS011;65284;51.040;13.722;2023-04-01T18:45:32;8.98;;;4.25;;
76447;SDS011;65284;51.040;13.722;2023-04-01T18:48:08;6.45;;;3.17;;
76447;SDS011;65284;51.040;13.722;2023-04-01T18:53:34;9.02;;;4.15;;
76447;SDS011;65284;51.040;13.722;2023-04-01T18:56:11;10.20;;;4.20;;
76447;SDS011;65284;51.040;13.722;2023-04-01T18:58:48;8.90;;;4.40;;
76447;SDS011;65284;51.040;13.722;2023-04-01T19:01:23;10.27;;;4.53;;
76447;SDS011;65284;51.040;13.722;2023-04-01T19:06:50;26.10;;;13.55;;
76447;SDS011;65284;51.040;13.722;2023-04-01T19:09:29;23.90;;;12.38;;
76447;SDS011;65284;51.040;13.722;2023-04-01T19:15:14;10.45;;;6.07;;
76447;SDS011;65284;51.040;13.722;2023-04-01T19:18:16;11.27;;;6.25;;
76447;SDS011;65284;51.040;13.722;2023-04-01T19:24:09;8.93;;;4.93;;
76447;SDS011;65284;51.040;13.722;2023-04-01T19:26:51;9.05;;;5.03;;
76447;SDS011;65284;51.040;13.722;2023-04-01T19:29:42;13.27;;;5.82;;
76447;SDS011;65284;51.040;13.722;2023-04-01T19:32:28;12.75;;;6.78;;
76447;SDS011;65284;51.040;13.722;2023-04-01T19:37:56;12.52;;;6.13;;
76447;SDS011;65284;51.040;13.722;2023-04-01T19:43:16;12.43;;;6.45;;
76447;SDS011;65284;51.040;13.722;2023-04-01T19:46:07;10.38;;;6.10;;
76447;SDS011;65284;51.040;13.722;2023-04-01T19:54:44;11.48;;;6.68;;
76447;SDS011;65284;51.040;13.722;2023-04-01T19:57:24;11.25;;;6.13;;
76447;SDS011;65284;51.040;13.722;2023-04-01T20:00:23;42.67;;;21.85;;
76447;SDS011;65284;51.040;13.722;2023-04-01T20:03:10;25.92;;;12.77;;
76447;SDS011;65284;51.040;13.722;2023-04-01T20:05:45;14.07;;;6.60;;
76447;SDS011;65284;51.040;13.722;2023-04-01T20:11:10;14.68;;;7.30;;
76447;SDS011;65284;51.040;13.722;2023-04-01T20:16:59;30.63;;;14.98;;
76447;SDS011;65284;51.040;13.722;2023-04-01T20:19:35;22.10;;;9.57;;
76447;SDS011;65284;51.040;13.722;2023-04-01T20:36:50;21.05;;;11.80;;
76447;SDS011;65284;51.040;13.722;2023-04-01T20:42:19;9.13;;;5.50;;
76447;SDS011;65284;51.040;13.722;2023-04-01T20:50:51;10.88;;;5.75;;
76447;SDS011;65284;51.040;13.722;2023-04-01T20:53:28;14.63;;;8.20;;
76447;SDS011;65284;51.040;13.722;2023-04-01T20:56:11;11.38;;;6.50;;
76447;SDS011;65284;51.040;13.722;2023-04-01T21:03:55;7.50;;;4.32;;
76447;SDS011;65284;51.040;13.722;2023-04-01T21:17:58;6.10;;;2.58;;
76447;SDS011;65284;51.040;13.722;2023-04-01T21:20:39;3.83;;;2.33;;
76447;SDS011;65284;51.040;13.722;2023-04-01T21:26:19;5.78;;;3.05;;
76447;SDS011;65284;51.040;13.722;2023-04-01T21:32:06;5.00;;;2.95;;
76447;SDS011;65284;51.040;13.722;2023-04-01T22:04:22;2.10;;;1.20;;
76447;SDS011;65284;51.040;13.722;2023-04-01T22:07:02;2.53;;;1.10;;
76447;SDS011;65284;51.040;13.722;2023-04-01T22:10:10;2.60;;;1.35;;
76447;SDS011;65284;51.040;13.722;2023-04-01T22:15:45;3.10;;;1.42;;
76447;SDS011;65284;51.040;13.722;2023-04-01T22:18:20;3.20;;;1.52;;
76447;SDS011;65284;51.040;13.722;2023-04-01T22:21:00;3.70;;;1.67;;
76447;SDS011;65284;51.040;13.722;2023-04-01T22:23:39;5.00;;;1.88;;
76447;SDS011;65284;51.040;13.722;2023-04-01T22:26:16;5.20;;;2.60;;
76447;SDS011;65284;51.040;13.722;2023-04-01T22:28:55;4.15;;;1.90;;
76447;SDS011;65284;51.040;13.722;2023-04-01T22:31:31;3.72;;;1.80;;
76447;SDS011;65284;51.040;13.722;2023-04-01T22:37:17;4.82;;;2.47;;
76447;SDS011;65284;51.040;13.722;2023-04-01T22:39:55;4.53;;;2.20;;
76447;SDS011;65284;51.040;13.722;2023-04-01T22:42:44;5.25;;;2.30;;
76447;SDS011;65284;51.040;13.722;2023-04-01T22:50:17;5.00;;;2.38;;
76447;SDS011;65284;51.040;13.722;2023-04-01T22:53:06;4.68;;;2.20;;
76447;SDS011;65284;51.040;13.722;2023-04-01T22:55:38;6.10;;;2.60;;
76447;SDS011;65284;51.040;13.722;2023-04-01T22:58:21;4.78;;;2.30;;
76447;SDS011;65284;51.040;13.722;2023-04-01T23:00:55;5.28;;;2.70;;
76447;SDS011;65284;51.040;13.722;2023-04-01T23:03:30;4.28;;;2.33;;
76447;SDS011;65284;51.040;13.722;2023-04-01T23:05:58;5.10;;;2.60;;
76447;SDS011;65284;51.040;13.722;2023-04-01T23:11:18;6.25;;;2.75;;
76447;SDS011;65284;51.040;13.722;2023-04-01T23:14:02;5.90;;;2.70;;
76447;SDS011;65284;51.040;13.722;2023-04-01T23:16:45;5.05;;;2.58;;
76447;SDS011;65284;51.040;13.722;2023-04-01T23:19:21;5.13;;;2.60;;
76447;SDS011;65284;51.040;13.722;2023-04-01T23:21:58;4.88;;;2.70;;
76447;SDS011;65284;51.040;13.722;2023-04-01T23:24:38;6.07;;;3.25;;
76447;SDS011;65284;51.040;13.722;2023-04-01T23:27:21;5.75;;;3.28;;
76447;SDS011;65284;51.040;13.722;2023-04-01T23:35:48;6.43;;;3.33;;
76447;SDS011;65284;51.040;13.722;2023-04-01T23:38:15;5.72;;;3.08;;